createdAt,value
2018-03-25T00:00:30.907Z,1.20
2018-03-25T00:02:58.466Z,1.20
2018-03-25T00:05:26.740Z,1.10
2018-03-25T00:07:54.276Z,1.10
2018-03-25T00:10:22.546Z,1.00
2018-03-25T00:12:50.035Z,1.00
2018-03-25T00:15:18.419Z,1.00
2018-03-25T00:17:45.980Z,0.90
2018-03-25T00:20:13.553Z,0.90
2018-03-25T00:22:41.046Z,0.90
2018-03-25T00:25:08.639Z,0.90
2018-03-25T00:27:36.881Z,0.90
2018-03-25T00:30:04.382Z,0.80
2018-03-25T00:32:31.936Z,0.90
2018-03-25T00:35:00.220Z,0.90
2018-03-25T00:37:28.510Z,0.90
2018-03-25T00:39:56.045Z,0.90
2018-03-25T00:42:24.327Z,0.90
2018-03-25T00:44:52.609Z,0.90
2018-03-25T00:47:20.946Z,0.80
2018-03-25T00:49:48.451Z,0.80
2018-03-25T00:52:15.976Z,0.80
2018-03-25T00:54:43.451Z,0.70
2018-03-25T00:57:11.724Z,0.70
2018-03-25T00:59:39.303Z,0.70
2018-03-25T01:02:07.574Z,0.60
2018-03-25T01:04:35.855Z,0.60
2018-03-25T01:07:04.216Z,0.50
2018-03-25T01:09:32.487Z,0.50
2018-03-25T01:12:00.782Z,0.40
2018-03-25T01:14:29.096Z,0.40
2018-03-25T01:16:56.615Z,0.40
2018-03-25T01:19:24.891Z,0.20
2018-03-25T01:21:53.155Z,0.60
2018-03-25T01:24:21.722Z,1.00
2018-03-25T01:26:49.247Z,1.00
2018-03-25T01:29:16.755Z,0.70
2018-03-25T01:31:45.014Z,0.30
2018-03-25T01:34:12.489Z,0.30
2018-03-25T01:36:40.790Z,0.10
2018-03-25T01:39:09.068Z,0.00
2018-03-25T01:41:37.372Z,-0.10
2018-03-25T01:44:04.889Z,-0.10
2018-03-25T01:46:32.457Z,-0.20
2018-03-25T01:49:00.704Z,-0.20
2018-03-25T01:51:28.203Z,-0.30
2018-03-25T01:53:56.451Z,-0.30
2018-03-25T01:56:23.935Z,-0.30
2018-03-25T01:58:52.202Z,-0.40
2018-03-25T02:01:20.488Z,-0.40
2018-03-25T02:03:48.764Z,-0.40
2018-03-25T02:06:17.040Z,-0.50
2018-03-25T02:08:45.290Z,-0.50
2018-03-25T02:11:12.785Z,-0.50
2018-03-25T02:13:40.331Z,-0.50
2018-03-25T02:16:08.607Z,-0.60
2018-03-25T02:18:36.861Z,-0.60
2018-03-25T02:21:04.470Z,-0.60
2018-03-25T02:23:32.350Z,-0.60
2018-03-25T02:25:59.836Z,-0.60
2018-03-25T02:28:27.427Z,-0.60
2018-03-25T02:30:55.683Z,-0.70
2018-03-25T02:33:23.179Z,-0.70
2018-03-25T02:35:50.679Z,-0.70
2018-03-25T02:38:18.181Z,-0.70
2018-03-25T02:40:46.427Z,-0.80
2018-03-25T02:43:13.943Z,-0.80
2018-03-25T02:45:41.433Z,-0.70
2018-03-25T02:48:08.931Z,-0.80
2018-03-25T02:50:37.202Z,-0.80
2018-03-25T02:53:05.507Z,-0.80
2018-03-25T02:55:33.003Z,-0.80
2018-03-25T02:58:00.511Z,-0.80
2018-03-25T03:00:28.018Z,-0.80
2018-03-25T03:02:55.614Z,-0.80
2018-03-25T03:05:23.903Z,-0.80
2018-03-25T03:07:52.145Z,-0.80
2018-03-25T03:10:19.734Z,-0.80
2018-03-25T03:12:48.019Z,-0.80
2018-03-25T03:15:16.282Z,-0.80
2018-03-25T03:17:44.566Z,-0.80
2018-03-25T03:20:12.830Z,-0.80
2018-03-25T03:22:40.315Z,-0.90
2018-03-25T03:25:07.858Z,-0.90
2018-03-25T03:27:36.485Z,-0.90
2018-03-25T03:30:03.974Z,-0.90
2018-03-25T03:32:31.563Z,-0.90
2018-03-25T03:34:59.827Z,-0.90
2018-03-25T03:37:27.399Z,-0.90
2018-03-25T03:39:55.687Z,-0.90
2018-03-25T03:42:23.233Z,-1.00
2018-03-25T03:44:51.525Z,-1.00
2018-03-25T03:47:19.781Z,-1.00
2018-03-25T03:49:47.346Z,-1.00
2018-03-25T03:52:15.585Z,-0.90
2018-03-25T03:54:43.081Z,-0.90
2018-03-25T03:57:11.362Z,-0.90
2018-03-25T03:59:39.642Z,-0.90
2018-03-25T04:02:07.903Z,-0.80
2018-03-25T04:04:36.187Z,-0.80
2018-03-25T04:07:04.471Z,-0.80
2018-03-25T04:09:32.732Z,-0.80
2018-03-25T04:12:00.245Z,-0.90
2018-03-25T04:14:27.718Z,-0.80
2018-03-25T04:16:55.198Z,-0.90
2018-03-25T04:19:22.778Z,-0.90
2018-03-25T04:21:51.025Z,-0.90
2018-03-25T04:24:18.615Z,-1.00
2018-03-25T04:26:46.114Z,-1.00
2018-03-25T04:29:13.627Z,-1.00
2018-03-25T04:31:41.892Z,-1.00
2018-03-25T04:34:09.407Z,-1.00
2018-03-25T04:36:36.923Z,-0.90
2018-03-25T04:39:05.183Z,-1.00
2018-03-25T04:41:32.691Z,-1.00
2018-03-25T04:44:00.522Z,-1.00
2018-03-25T04:46:28.777Z,-1.00
2018-03-25T04:48:56.270Z,-1.00
2018-03-25T04:51:24.531Z,-1.00
2018-03-25T04:53:53.263Z,-1.00
2018-03-25T04:56:20.774Z,-1.10
2018-03-25T04:58:49.070Z,-1.00
2018-03-25T05:01:17.338Z,-1.00
2018-03-25T05:03:45.608Z,-0.90
2018-03-25T05:06:13.897Z,-0.90
2018-03-25T05:08:42.170Z,-0.80
2018-03-25T05:11:10.438Z,-0.80
2018-03-25T05:13:38.691Z,-0.80
2018-03-25T05:16:06.170Z,-0.80
2018-03-25T05:18:34.454Z,-0.80
2018-03-25T05:21:02.705Z,-0.80
2018-03-25T05:23:30.298Z,-0.80
2018-03-25T05:25:58.588Z,-0.70
2018-03-25T05:28:26.147Z,-0.70
2018-03-25T05:30:53.637Z,-0.70
2018-03-25T05:33:21.755Z,-0.70
2018-03-25T05:35:50.050Z,-0.60
2018-03-25T05:38:17.619Z,-0.70
2018-03-25T05:40:45.127Z,-0.60
2018-03-25T05:43:13.761Z,-0.60
2018-03-25T05:45:41.250Z,-0.50
2018-03-25T05:48:08.756Z,-0.40
2018-03-25T05:50:37.023Z,-0.20
2018-03-25T05:53:04.517Z,-0.20
2018-03-25T05:55:32.036Z,-0.10
2018-03-25T05:57:59.622Z,-0.10
2018-03-25T06:00:27.098Z,0.00
2018-03-25T06:02:54.599Z,0.10
2018-03-25T06:05:22.091Z,0.10
2018-03-25T06:07:49.585Z,0.20
2018-03-25T06:10:17.104Z,0.30
2018-03-25T06:12:45.350Z,0.50
2018-03-25T06:15:12.931Z,0.40
2018-03-25T06:17:40.450Z,0.60
2018-03-25T06:20:07.935Z,0.60
2018-03-25T06:22:36.926Z,0.90
2018-03-25T06:25:04.422Z,0.90
2018-03-25T06:27:31.970Z,1.00
2018-03-25T06:29:59.528Z,1.10
2018-03-25T06:32:27.902Z,1.30
2018-03-25T06:34:56.187Z,1.40
2018-03-25T06:37:23.735Z,1.30
2018-03-25T06:39:52.424Z,1.60
2018-03-25T06:42:19.919Z,1.60
2018-03-25T06:44:47.416Z,1.80
2018-03-25T06:47:14.939Z,1.90
2018-03-25T06:49:42.425Z,2.10
2018-03-25T06:52:09.911Z,2.20
2018-03-25T06:54:38.218Z,2.50
2018-03-25T06:57:05.830Z,2.50
2018-03-25T06:59:33.313Z,2.50
2018-03-25T07:02:00.940Z,2.70
2018-03-25T07:04:28.432Z,2.80
2018-03-25T07:06:56.703Z,3.10
2018-03-25T07:09:25.087Z,3.30
2018-03-25T07:11:53.378Z,3.50
2018-03-25T07:14:20.998Z,3.50
2018-03-25T07:16:48.505Z,3.60
2018-03-25T07:19:16.183Z,3.90
2018-03-25T07:21:43.699Z,4.10
2018-03-25T07:24:12.016Z,4.30
2018-03-25T07:26:39.497Z,4.30
2018-03-25T07:29:07.006Z,4.50
2018-03-25T07:31:35.307Z,4.70
2018-03-25T07:34:02.812Z,4.70
2018-03-25T07:36:30.307Z,4.90
2018-03-25T07:38:58.607Z,5.30
2018-03-25T07:41:26.104Z,5.30
2018-03-25T07:43:53.580Z,5.50
2018-03-25T07:46:21.147Z,5.80
2018-03-25T07:48:49.432Z,6.00
2018-03-25T07:51:17.677Z,6.10
2018-03-25T07:53:45.181Z,6.10
2018-03-25T07:56:12.703Z,6.20
2018-03-25T07:58:40.284Z,6.20
2018-03-25T08:01:08.620Z,6.40
2018-03-25T08:03:36.122Z,6.40
2018-03-25T08:06:03.629Z,6.60
2018-03-25T08:08:31.179Z,6.70
2018-03-25T08:10:58.687Z,7.00
2018-03-25T08:13:26.213Z,7.00
2018-03-25T08:15:53.715Z,7.20
2018-03-25T08:18:21.986Z,7.40
2018-03-25T08:20:50.236Z,7.60
2018-03-25T08:23:17.821Z,7.60
2018-03-25T08:25:46.070Z,8.10
2018-03-25T08:28:13.655Z,8.20
2018-03-25T08:30:41.922Z,8.50
2018-03-25T08:33:09.408Z,8.40
2018-03-25T08:35:36.898Z,8.70
2018-03-25T08:38:04.407Z,8.80
2018-03-25T08:40:32.662Z,9.20
2018-03-25T08:43:00.181Z,9.20
2018-03-25T08:45:27.730Z,9.40
2018-03-25T08:47:55.219Z,9.70
2018-03-25T08:50:22.726Z,9.90
2018-03-25T08:52:50.991Z,10.00
2018-03-25T08:55:18.474Z,10.00
2018-03-25T08:57:46.033Z,10.20
2018-03-25T09:00:13.539Z,10.50
2018-03-25T09:02:41.039Z,11.30
2018-03-25T09:05:09.287Z,11.70
2018-03-25T09:07:36.818Z,11.70
2018-03-25T09:10:04.363Z,12.10
2018-03-25T09:12:31.852Z,12.50
2018-03-25T09:14:59.455Z,12.90
2018-03-25T09:17:27.689Z,14.90
2018-03-25T09:19:55.187Z,14.80
2018-03-25T09:22:23.453Z,14.80
2018-03-25T09:24:51.032Z,14.80
2018-03-25T09:27:20.171Z,15.00
2018-03-25T09:29:47.706Z,15.00
2018-03-25T09:32:15.186Z,15.30
2018-03-25T09:34:42.698Z,15.30
2018-03-25T09:37:11.001Z,15.30
2018-03-25T09:39:38.502Z,15.20
2018-03-25T09:42:06.039Z,15.30
2018-03-25T09:44:33.651Z,15.70
2018-03-25T09:47:01.924Z,15.90
2018-03-25T09:49:30.207Z,15.90
2018-03-25T09:51:58.581Z,16.10
2018-03-25T09:54:26.852Z,16.00
2018-03-25T09:56:54.335Z,15.90
2018-03-25T09:59:21.966Z,16.60
2018-03-25T10:01:55.167Z,16.70
2018-03-25T10:04:23.444Z,17.10
2018-03-25T10:06:51.705Z,17.20
2018-03-25T10:09:19.288Z,17.20
2018-03-25T10:11:47.551Z,17.90
2018-03-25T10:14:15.119Z,17.90
2018-03-25T10:16:43.418Z,17.30
2018-03-25T10:19:11.809Z,16.80
2018-03-25T10:21:39.338Z,16.80
2018-03-25T10:24:07.596Z,18.80
2018-03-25T10:26:35.183Z,18.80
2018-03-25T10:29:02.742Z,19.10
2018-03-25T10:31:31.016Z,18.80
2018-03-25T10:33:59.390Z,19.10
2018-03-25T10:36:27.674Z,18.80
2018-03-25T10:38:55.919Z,18.90
2018-03-25T10:41:23.502Z,18.80
2018-03-25T10:43:51.762Z,18.90
2018-03-25T10:46:19.251Z,18.90
2018-03-25T10:48:46.777Z,19.20
2018-03-25T10:51:14.298Z,19.50
2018-03-25T10:53:41.792Z,19.20
2018-03-25T10:56:09.304Z,19.20
2018-03-25T10:58:36.804Z,19.60
2018-03-25T11:01:04.298Z,19.80
2018-03-25T11:03:32.574Z,20.10
2018-03-25T11:06:00.822Z,19.40
2018-03-25T11:08:28.331Z,19.40
2018-03-25T11:10:55.854Z,20.10
2018-03-25T11:13:24.112Z,20.30
2018-03-25T11:15:51.713Z,20.30
2018-03-25T11:18:19.229Z,20.30
2018-03-25T11:20:46.737Z,21.00
2018-03-25T11:23:14.223Z,20.40
2018-03-25T11:25:41.841Z,20.70
2018-03-25T11:28:10.114Z,20.30
2018-03-25T11:30:38.379Z,20.90
2018-03-25T11:33:06.651Z,21.50
2018-03-25T11:35:34.929Z,21.40
2018-03-25T11:38:02.415Z,21.30
2018-03-25T11:40:29.968Z,21.50
2018-03-25T11:42:57.545Z,21.00
2018-03-25T11:45:25.140Z,21.60
2018-03-25T11:47:52.712Z,21.40
2018-03-25T11:50:20.202Z,21.70
2018-03-25T11:52:48.487Z,21.10
2018-03-25T11:55:16.034Z,21.10
2018-03-25T11:57:44.325Z,21.90
2018-03-25T12:00:11.824Z,21.90
2018-03-25T12:02:39.332Z,21.70
2018-03-25T12:05:07.595Z,21.10
2018-03-25T12:07:35.849Z,20.80
2018-03-25T12:10:03.446Z,20.80
2018-03-25T12:12:31.716Z,21.10
2018-03-25T12:15:00.022Z,21.50
2018-03-25T12:17:27.770Z,21.50
2018-03-25T12:19:55.301Z,21.30
2018-03-25T12:22:23.597Z,22.20
2018-03-25T12:24:51.890Z,21.20
2018-03-25T12:27:19.458Z,21.20
2018-03-25T12:29:46.951Z,21.30
2018-03-25T12:32:14.455Z,21.70
2018-03-25T12:34:41.940Z,22.10
2018-03-25T12:37:09.466Z,22.30
2018-03-25T12:39:36.979Z,21.60
2018-03-25T12:42:04.463Z,21.50
2018-03-25T12:44:31.972Z,21.20
2018-03-25T12:46:59.481Z,21.40
2018-03-25T12:49:27.058Z,21.90
2018-03-25T12:51:55.317Z,20.60
2018-03-25T12:54:23.615Z,20.70
2018-03-25T12:56:51.138Z,20.70
2018-03-25T12:59:18.626Z,20.90
2018-03-25T13:01:46.912Z,22.10
2018-03-25T13:04:15.184Z,22.30
2018-03-25T13:06:43.519Z,22.00
2018-03-25T13:09:11.015Z,22.00
2018-03-25T13:11:39.307Z,21.40
2018-03-25T13:14:06.795Z,21.40
2018-03-25T13:16:34.310Z,21.50
2018-03-25T13:19:02.702Z,20.90
2018-03-25T13:21:31.011Z,20.90
2018-03-25T13:23:59.243Z,21.00
2018-03-25T13:26:27.516Z,20.90
2018-03-25T13:28:55.916Z,20.30
2018-03-25T13:31:23.351Z,20.30
2018-03-25T13:33:50.918Z,20.90
2018-03-25T13:36:19.167Z,20.30
2018-03-25T13:38:46.681Z,20.20
2018-03-25T13:41:14.307Z,19.40
2018-03-25T13:43:41.907Z,18.20
2018-03-25T13:46:09.495Z,17.80
2018-03-25T13:48:36.985Z,17.30
2018-03-25T13:51:05.244Z,16.60
2018-03-25T13:53:32.751Z,16.60
2018-03-25T13:56:00.241Z,16.60
2018-03-25T13:58:27.725Z,16.40
2018-03-25T14:00:55.325Z,15.90
2018-03-25T14:03:22.862Z,15.90
2018-03-25T14:05:51.142Z,15.60
2018-03-25T14:08:19.411Z,15.40
2018-03-25T14:10:47.785Z,15.30
2018-03-25T14:13:15.356Z,15.30
2018-03-25T14:15:43.767Z,15.40
2018-03-25T14:18:11.252Z,15.30
2018-03-25T14:20:38.751Z,15.30
2018-03-25T14:23:07.125Z,15.20
2018-03-25T14:25:34.688Z,15.20
2018-03-25T14:28:02.385Z,15.20
2018-03-25T14:30:29.962Z,15.20
2018-03-25T14:32:57.434Z,15.10
2018-03-25T14:35:24.927Z,15.10
2018-03-25T14:37:53.298Z,14.90
2018-03-25T14:40:20.876Z,14.90
2018-03-25T14:42:49.204Z,14.50
2018-03-25T14:45:16.821Z,14.50
2018-03-25T14:47:45.074Z,14.50
2018-03-25T14:50:12.634Z,14.50
2018-03-25T14:52:40.178Z,14.40
2018-03-25T14:55:09.193Z,14.20
2018-03-25T14:57:36.755Z,14.30
2018-03-25T15:00:05.031Z,14.00
2018-03-25T15:02:33.355Z,13.90
2018-03-25T15:05:00.868Z,13.90
2018-03-25T15:07:29.135Z,13.80
2018-03-25T15:09:56.619Z,13.80
2018-03-25T15:12:24.866Z,13.80
2018-03-25T15:14:52.579Z,13.80
2018-03-25T15:17:20.079Z,13.60
2018-03-25T15:19:47.682Z,13.60
2018-03-25T15:22:15.189Z,13.50
2018-03-25T15:24:42.690Z,13.40
2018-03-25T15:27:10.935Z,13.40
2018-03-25T15:29:38.441Z,13.40
2018-03-25T15:32:05.984Z,13.40
2018-03-25T15:34:34.227Z,13.00
2018-03-25T15:37:03.357Z,13.00
2018-03-25T15:39:30.923Z,12.90
2018-03-25T15:41:59.166Z,12.60
2018-03-25T15:44:26.670Z,12.50
2018-03-25T15:46:54.170Z,12.60
2018-03-25T15:49:21.720Z,12.50
2018-03-25T15:51:49.399Z,12.40
2018-03-25T15:54:16.840Z,12.30
2018-03-25T15:56:44.410Z,12.10
2018-03-25T15:59:12.632Z,12.00
2018-03-25T16:01:40.127Z,11.90
2018-03-25T16:04:07.614Z,11.60
2018-03-25T16:06:35.158Z,11.60
2018-03-25T16:09:02.651Z,11.40
2018-03-25T16:11:30.893Z,11.30
2018-03-25T16:13:58.416Z,11.30
2018-03-25T16:16:25.945Z,11.20
2018-03-25T16:18:54.226Z,11.00
2018-03-25T16:21:22.606Z,10.80
2018-03-25T16:23:50.875Z,10.70
2018-03-25T16:26:19.121Z,10.70
2018-03-25T16:28:46.724Z,10.70
2018-03-25T16:31:14.277Z,10.70
2018-03-25T16:33:42.518Z,10.50
2018-03-25T16:36:10.018Z,10.50
2018-03-25T16:38:38.316Z,10.40
2018-03-25T16:41:05.809Z,10.40
2018-03-25T16:43:35.881Z,10.30
2018-03-25T16:46:03.367Z,10.30
2018-03-25T16:48:30.873Z,10.30
2018-03-25T16:50:59.151Z,10.10
2018-03-25T16:53:27.723Z,10.00
2018-03-25T16:55:55.993Z,9.90
2018-03-25T16:58:23.490Z,9.90
2018-03-25T17:00:51.041Z,9.80
2018-03-25T17:03:19.366Z,9.80
2018-03-25T17:05:46.964Z,9.80
2018-03-25T17:08:14.535Z,9.80
2018-03-25T17:10:42.802Z,9.70
2018-03-25T17:13:11.075Z,9.50
2018-03-25T17:15:39.381Z,9.40
2018-03-25T17:18:06.926Z,9.40
2018-03-25T17:20:35.211Z,9.30
2018-03-25T17:23:02.887Z,9.30
2018-03-25T17:25:30.402Z,9.20
2018-03-25T17:27:57.922Z,9.20
2018-03-25T17:30:25.448Z,9.10
2018-03-25T17:32:53.723Z,9.10
2018-03-25T17:35:22.130Z,9.10
2018-03-25T17:37:49.629Z,9.00
2018-03-25T17:40:17.151Z,9.00
2018-03-25T17:42:44.695Z,8.90
2018-03-25T17:45:12.195Z,8.70
2018-03-25T17:47:39.687Z,8.70
2018-03-25T17:50:07.198Z,8.60
2018-03-25T17:52:34.674Z,8.60
2018-03-25T17:55:02.331Z,8.50
2018-03-25T17:57:29.850Z,8.50
2018-03-25T17:59:57.455Z,8.30
2018-03-25T18:02:24.942Z,8.20
2018-03-25T18:04:53.220Z,8.10
2018-03-25T18:07:21.524Z,8.10
2018-03-25T18:09:49.030Z,8.10
2018-03-25T18:12:16.540Z,8.00
2018-03-25T18:14:44.032Z,7.90
2018-03-25T18:17:33.462Z,7.90
2018-03-25T18:19:40.833Z,7.80
2018-03-25T18:22:09.074Z,7.80
2018-03-25T18:24:36.635Z,7.70
2018-03-25T18:27:04.148Z,7.70
2018-03-25T18:29:31.640Z,7.60
2018-03-25T18:31:59.133Z,7.80
2018-03-25T18:34:26.634Z,8.40
2018-03-25T18:36:54.223Z,8.20
2018-03-25T18:39:21.710Z,8.00
2018-03-25T18:41:49.627Z,7.80
2018-03-25T18:44:17.130Z,7.70
2018-03-25T18:46:44.623Z,7.60
2018-03-25T18:49:12.179Z,7.50
2018-03-25T18:51:39.623Z,7.50
2018-03-25T18:54:07.883Z,7.30
2018-03-25T18:56:35.410Z,7.30
2018-03-25T18:59:02.909Z,7.30
2018-03-25T19:01:31.157Z,7.20
2018-03-25T19:03:58.747Z,7.20
2018-03-25T19:06:27.038Z,7.10
2018-03-25T19:08:55.309Z,7.00
2018-03-25T19:11:23.603Z,6.90
2018-03-25T19:13:51.113Z,6.90
2018-03-25T19:16:18.590Z,6.90
2018-03-25T19:18:46.124Z,6.80
2018-03-25T19:21:13.620Z,6.80
2018-03-25T19:23:41.897Z,6.70
2018-03-25T19:26:10.159Z,6.70
2018-03-25T19:28:37.633Z,6.70
2018-03-25T19:31:05.909Z,6.60
2018-03-25T19:33:34.300Z,6.60
2018-03-25T19:36:01.803Z,6.60
2018-03-25T19:38:29.497Z,6.50
2018-03-25T19:40:57.001Z,6.50
2018-03-25T19:43:24.554Z,6.40
2018-03-25T19:45:52.072Z,6.40
2018-03-25T19:48:19.590Z,6.30
2018-03-25T19:50:47.094Z,6.30
2018-03-25T19:53:14.581Z,6.20
2018-03-25T19:55:42.134Z,6.20
2018-03-25T19:58:09.787Z,6.10
2018-03-25T20:00:38.051Z,6.10
2018-03-25T20:03:06.350Z,6.00
2018-03-25T20:05:33.941Z,6.00
2018-03-25T20:08:01.418Z,6.00
2018-03-25T20:10:28.927Z,6.00
2018-03-25T20:12:57.491Z,5.90
2018-03-25T20:15:25.779Z,5.90
2018-03-25T20:17:54.038Z,5.80
2018-03-25T20:20:21.526Z,5.90
2018-03-25T20:22:49.013Z,5.90
2018-03-25T20:25:16.623Z,5.90
2018-03-25T20:27:44.898Z,5.90
2018-03-25T20:30:13.150Z,5.90
2018-03-25T20:32:40.661Z,5.80
2018-03-25T20:35:08.224Z,5.90
2018-03-25T20:37:35.778Z,6.00
2018-03-25T20:40:03.314Z,6.50
2018-03-25T20:42:30.982Z,7.00
2018-03-25T20:44:58.678Z,7.20
2018-03-25T20:47:26.256Z,7.40
2018-03-25T20:49:54.089Z,7.20
2018-03-25T20:52:21.615Z,6.90
2018-03-25T20:54:49.153Z,6.70
2018-03-25T20:57:16.635Z,6.60
2018-03-25T20:59:44.116Z,6.50
2018-03-25T21:02:11.715Z,6.30
2018-03-25T21:04:39.217Z,6.30
2018-03-25T21:07:07.483Z,6.20
2018-03-25T21:09:35.093Z,6.20
2018-03-25T21:12:02.592Z,6.20
2018-03-25T21:14:30.088Z,6.10
2018-03-25T21:16:58.363Z,6.10
2018-03-25T21:19:26.770Z,6.10
2018-03-25T21:21:54.269Z,6.10
2018-03-25T21:24:21.845Z,6.10
2018-03-25T21:26:50.102Z,6.00
2018-03-25T21:29:17.572Z,6.00
2018-03-25T21:31:45.091Z,6.00
2018-03-25T21:34:12.571Z,6.00
2018-03-25T21:36:40.046Z,5.90
2018-03-25T21:39:07.564Z,5.90
2018-03-25T21:41:35.052Z,5.90
2018-03-25T21:44:02.656Z,5.90
2018-03-25T21:46:30.191Z,5.80
2018-03-25T21:48:58.447Z,5.90
2018-03-25T21:51:26.802Z,5.90
2018-03-25T21:53:54.311Z,5.90
2018-03-25T21:56:22.555Z,5.90
2018-03-25T21:58:50.044Z,5.80
2018-03-25T22:01:18.311Z,5.90
2018-03-25T22:03:46.570Z,5.90
2018-03-25T22:06:14.058Z,5.80
2018-03-25T22:08:42.491Z,5.90
2018-03-25T22:11:10.036Z,5.90
2018-03-25T22:13:38.126Z,5.80
2018-03-25T22:16:05.660Z,5.80
2018-03-25T22:18:33.164Z,5.80
2018-03-25T22:21:00.728Z,5.80
2018-03-25T22:23:28.304Z,5.80
2018-03-25T22:25:56.571Z,5.80
2018-03-25T22:28:24.822Z,5.80
2018-03-25T22:30:52.410Z,5.80
2018-03-25T22:33:20.708Z,5.70
2018-03-25T22:35:48.290Z,5.70
2018-03-25T22:38:15.810Z,5.70
2018-03-25T22:40:44.056Z,5.70
2018-03-25T22:43:11.537Z,5.70
2018-03-25T22:45:39.818Z,5.70
2018-03-25T22:48:08.114Z,5.70
2018-03-25T22:50:35.678Z,5.70
2018-03-25T22:53:03.526Z,5.70
2018-03-25T22:55:31.776Z,5.60
2018-03-25T22:57:59.267Z,5.60
2018-03-25T23:00:27.164Z,5.70
2018-03-25T23:02:54.687Z,5.60
2018-03-25T23:05:22.962Z,5.50
2018-03-25T23:07:51.256Z,5.50
2018-03-25T23:10:18.747Z,5.50
2018-03-25T23:12:46.230Z,5.50
2018-03-25T23:15:15.250Z,5.50
2018-03-25T23:17:43.495Z,5.50
2018-03-25T23:20:10.979Z,5.50
2018-03-25T23:22:38.564Z,5.50
2018-03-25T23:25:06.058Z,5.50
2018-03-25T23:27:33.592Z,5.50
2018-03-25T23:30:01.107Z,5.50
2018-03-25T23:32:28.601Z,5.50
2018-03-25T23:34:56.096Z,5.50
2018-03-25T23:37:23.708Z,5.50
2018-03-25T23:39:51.972Z,5.50
2018-03-25T23:42:19.543Z,5.50
2018-03-25T23:44:47.936Z,5.50
2018-03-25T23:47:15.432Z,5.50
2018-03-25T23:49:42.962Z,5.50
2018-03-25T23:52:10.497Z,5.50
2018-03-25T23:54:38.757Z,5.50
2018-03-25T23:57:06.260Z,5.50
2018-03-25T23:59:33.792Z,5.50
